Flight Track Log - Related Links

Times and Time Zones

All times are in EDT time to prevent confusion due to time zone crossing. See the N411WC flight status page for this flight to view local times or setup timezone preferences in your user account.

Time Position Orientation Groundspeed Altitude Reporting Facility
EDT Latitude Longitude Course Direction KTS MPH feet Rate Location/Type
Sun 04:56:29 PM 44.1269 -121.2686 334° Northwest 195 224 7,300  Level Seattle Center
Sun 04:57:30 PM 44.1828 -121.2864 347° North 204 235 9,400 2,213 Climbing Seattle Center
Sun 04:58:31 PM 44.2242 -121.3414 316° Northwest 202 232 11,800 2,066 Climbing Seattle Center
Sun 04:59:32 PM 44.2661 -121.3975 316° Northwest 207 238 13,600 1,082 Climbing Seattle Center
Sun 05:00:33 PM 44.3131 -121.4625 315° West 228 262 14,000 195 Climbing Seattle Center
Sun 05:01:35 PM 44.3683 -121.5344 317° Northwest 252 290 14,000  Level Seattle Center
Sun 05:02:36 PM 44.4386 -121.5844 333° Northwest 274 315 14,000  Level Seattle Center
Sun 05:03:37 PM 44.5069 -121.6819 315° West 290 334 14,000  Level Seattle Center
Sun 05:04:38 PM 44.5636 -121.7675 313° West 295 339 14,000  Level Seattle Center
Sun 05:05:39 PM 44.6236 -121.8561 314° West 302 348 14,000 49 Level Seattle Center
Sun 05:06:40 PM 44.6844 -121.9444 314° West 308 354 14,100 49 Climbing Seattle Center
Sun 05:07:41 PM 44.7383 -122.0258 313° West 291 335 14,100 -119 Level Seattle Center
Sun 05:08:21 PM 44.7775 -122.0867 312° West 294 338 13,900 -492 Descending Seattle Center
Sun 05:08:42 PM 44.7942 -122.1114 314° West 295 339 13,600 -1,143 Descending Seattle Center
Sun 05:09:03 PM 44.8161 -122.1469 311° West 304 350 13,100 -984 Descending Seattle Center
Sun 05:09:43 PM 44.8503 -122.1983 313° West 300 345 12,600 -984 Descending Seattle Center
Sun 05:10:04 PM 44.8733 -122.2333 313° West 300 345 12,100 -1,082 Descending Seattle Center
Sun 05:10:44 PM 44.9039 -122.2803 313° West 294 338 11,500 -984 Descending Seattle Center
Sun 05:11:05 PM 44.9278 -122.3178 312° West 291 335 11,100 -984 Descending Seattle Center
Sun 05:11:45 PM 44.9597 -122.3647 314° West 296 341 10,500 -984 Descending Seattle Center
Sun 05:12:06 PM 44.9814 -122.3997 311° West 288 331 10,100 -984 Descending Seattle Center
Sun 05:12:46 PM 45.0128 -122.4461 314° West 289 333 9,500 -1,082 Descending Seattle Center
Sun 05:13:07 PM 45.0403 -122.4858 314° West 284 327 9,000 -1,180 Descending Seattle Center
Sun 05:13:47 PM 45.0692 -122.5233 317° Northwest 284 327 8,300 -1,400 Descending Seattle Center
Sun 05:14:07 PM 45.0994 -122.5628 317° Northwest 282 325 7,600 -1,869 Descending Seattle Center
Sun 05:14:48 PM 45.1381 -122.6111 319° Northwest 280 322 6,400 -1,756 Descending Seattle Center

Login

Don't have an account? Register now (free) for customized features, flight alerts, and more!